METAR Data
IDs: Format: Raw Decoded Include TAF

Data at: 0235 UTC 05 Jun 2020

KGPH 050235Z AUTO 12003KT 10SM CLR 26/22 A2976 RMK AO2
KGPH 050215Z AUTO 00000KT 10SM CLR 26/21 A2976 RMK AO2
KGPH 050155Z AUTO 13003KT 10SM CLR 27/21 A2975 RMK AO2
KGPH 050135Z AUTO 12003KT 10SM CLR 28/21 A2975 RMK AO2
KGPH 050115Z AUTO 13004KT 10SM CLR 28/21 A2975 RMK AO2
KGPH 050055Z AUTO 13004KT 10SM CLR 29/20 A2975 RMK AO2
KGPH 050035Z AUTO 14004KT 10SM CLR 30/20 A2975 RMK AO2
KGPH 050015Z AUTO 14004KT 10SM CLR 30/20 A2976 RMK AO2
KGPH 042355Z AUTO 15004KT 10SM CLR 30/20 A2976 RMK AO2
KGPH 042335Z AUTO 15004KT 10SM CLR 30/19 A2976 RMK AO2
KGPH 042315Z AUTO 14005KT 10SM CLR 30/20 A2977 RMK AO2
KGPH 042255Z AUTO 12005KT 10SM CLR 30/20 A2977 RMK AO2
KGPH 042235Z AUTO 12006KT 10SM CLR 30/20 A2977 RMK AO2
KGPH 042215Z AUTO 15004KT 10SM CLR 30/20 A2977 RMK AO2
KGPH 042155Z AUTO 17003KT 10SM CLR 30/20 A2977 RMK AO2
KGPH 042135Z AUTO 16003KT 10SM CLR 30/18 A2978 RMK AO2
KGPH 042115Z AUTO 14004KT 10SM CLR 30/19 A2979 RMK AO2
KGPH 042055Z AUTO 20004KT 10SM CLR 30/19 A2979 RMK AO2
KGPH 042035Z AUTO 17006KT 10SM CLR 29/20 A2979 RMK AO2
KGPH 042015Z AUTO 13003KT 10SM CLR 29/20 A2979 RMK AO2
KGPH 041955Z AUTO 12004KT 10SM CLR 28/20 A2980 RMK AO2
KGPH 041935Z AUTO 10006KT 10SM 28/20 A2980 RMK AO2
KGPH 041915Z AUTO 14005KT 7SM CLR 28/19 A2981 RMK AO2
KGPH 041855Z AUTO 12003KT 10SM CLR 28/18 A2981 RMK AO2
KGPH 041835Z AUTO 00000KT 10SM CLR 27/18 A2981 RMK AO2
KGPH 041815Z AUTO 22003KT 10SM CLR 27/18 A2981 RMK AO2
KGPH 041755Z AUTO 23003KT 10SM CLR 27/18 A2982 RMK AO2
KGPH 041735Z AUTO 23004KT 10SM CLR 26/18 A2982 RMK AO2
KGPH 041715Z AUTO 24006KT 10SM CLR 26/18 A2982 RMK AO2
KGPH 041655Z AUTO 26003KT 10SM CLR 25/18 A2982 RMK AO2
KGPH 041455Z AUTO 19007KT 10SM SCT002 22/17 A2983 RMK AO2
KGPH 041435Z AUTO 17006KT 10SM CLR 22/17 A2983 RMK AO2
KGPH 041355Z AUTO 19006KT 10SM CLR 21/17 A2984 RMK AO2
KGPH 041335Z AUTO 17003KT 10SM CLR 20/18 A2984 RMK AO2
KGPH 041315Z AUTO 00000KT 10SM 19/18 A2984 RMK AO2
KGPH 041255Z AUTO 00000KT 10SM CLR 18/18 A2984 RMK AO2 LTG DSNT SE
KGPH 041215Z AUTO 18003KT 10SM CLR 18/18 A2983 RMK AO2
KGPH 041155Z AUTO 17003KT 10SM CLR 18/18 A2983 RMK AO2
KGPH 041135Z AUTO 19004KT 10SM CLR 18/18 A2983 RMK AO2 LTG DSNT SE
KGPH 041115Z AUTO 16004KT 10SM CLR 18/18 A2983 RMK AO2
KGPH 041055Z AUTO 18003KT 10SM SCT120 18/18 A2984 RMK AO2
KGPH 041035Z AUTO 19005KT 10SM SCT120 18/18 A2985 RMK AO2
KGPH 041015Z AUTO 17003KT 10SM CLR 18/17 A2982 RMK AO2 LTG DSNT E
KGPH 040955Z AUTO 16006KT 10SM -RA SCT006 SCT016 SCT070 18/17 A2982 RMK AO2 LTG DSNT S
KGPH 040935Z AUTO 13010G15KT 10SM -RA SCT015 BKN085 OVC120 18/17 A2979 RMK AO2 LTG DSNT S
KGPH 040915Z AUTO 14005KT 10SM RA SCT048 BKN075 OVC120 19/18 A2984 RMK AO2 LTG DSNT SE THRU SW
KGPH 040855Z AUTO 09004KT 10SM -TSRA SCT050 OVC065 20/18 A2983 RMK AO2 LTG DSNT ALQS
KGPH 040835Z AUTO 09003KT 10SM -VCTSRA SCT039 BKN050 OVC065 20/17 A2985 RMK AO2 LTG DSNT ALQS
KGPH 040815Z AUTO 07008KT 7SM VCTSRA SCT034 BKN040 OVC055 20/17 A2986 RMK AO2 LTG DSNT ALQS
KGPH 040755Z AUTO 08006KT 7SM TSRA SCT008 BKN015 OVC040 20/18 A2988 RMK AO2 LTG DSNT ALQS
KGPH 040655Z AUTO 16008G15KT 10SM TS SCT050 SCT090 SCT120 27/20 A2974 RMK AO2 LTG DSNT ALQS
KGPH 040635Z AUTO 22007KT 10SM TS SCT050 BKN070 BKN080 26/20 A2974 RMK AO2 LTG DSNT ALQS
KGPH 040615Z AUTO 24004KT 10SM VCTS OVC049 26/21 A2974 RMK AO2 LTG DSNT W THRU E
KGPH 040555Z AUTO 00000KT 10SM VCTS OVC049 25/22 A2975 RMK AO2 LTG DSNT ALQS
KGPH 040535Z AUTO 14003KT 10SM BKN049 BKN060 BKN070 25/22 A2976 RMK AO2 LTG DSNT E AND SE
KGPH 040515Z AUTO 00000KT 10SM SCT049 SCT060 SCT070 24/22 A2976 RMK AO2 LTG DSNT E AND NW
KGPH 040455Z AUTO 00000KT 10SM CLR 24/21 A2977 RMK AO2 LTG DSNT E
KGPH 040435Z AUTO 00000KT 10SM CLR 25/21 A2976 RMK AO2 LTG DSNT E
KGPH 040415Z AUTO 00000KT 10SM CLR 25/21 A2977 RMK AO2 LTG DSNT E
KGPH 040355Z AUTO 00000KT 10SM CLR 27/21 A2977 RMK AO2 LTG DSNT E
KGPH 040335Z AUTO 00000KT 10SM CLR 27/21 A2977 RMK AO2 LTG DSNT E
KGPH 040315Z AUTO 00000KT 10SM CLR 26/22 A2977 RMK AO2 LTG DSNT E
KGPH 040235Z AUTO 00000KT 10SM CLR 28/21 A2975 RMK AO2 LTG DSNT E
KGPH 040215Z AUTO 22003KT 10SM CLR 29/21 A2975 RMK AO2 LTG DSNT E
KGPH 040155Z AUTO 00000KT 10SM CLR 28/22 A2976 RMK AO2
KGPH 040135Z AUTO 00000KT 10SM CLR 30/21 A2976 RMK AO2 LTG DSNT E
KGPH 040115Z AUTO 00000KT 10SM CLR 31/21 A2975 RMK AO2 LTG DSNT E
KGPH 040055Z AUTO 00000KT 10SM CLR 32/20 A2976 RMK AO2
KGPH 040035Z AUTO 25003KT 10SM SCT050 32/20 A2976 RMK AO2
KGPH 040015Z AUTO 27003KT 10SM SCT049 32/20 A2976 RMK AO2 LTG DSNT E
KGPH 032355Z AUTO 26005KT 10SM CLR 32/20 A2976 RMK AO2
KGPH 032335Z AUTO 26004KT 10SM CLR 32/20 A2976 RMK AO2
KGPH 032315Z AUTO 26005KT 10SM CLR 32/21 A2976 RMK AO2
KGPH 032255Z AUTO 26006KT 10SM SCT050 SCT060 32/20 A2977 RMK AO2
KGPH 032235Z AUTO 25006KT 10SM SCT049 32/20 A2977 RMK AO2
KGPH 032215Z AUTO 24005KT 10SM SCT049 32/20 A2978 RMK AO2
KGPH 032155Z AUTO 25008KT 10SM SCT045 32/20 A2979 RMK AO2
KGPH 032135Z AUTO 24007KT 10SM SCT045 33/20 A2979 RMK AO2
KGPH 032115Z AUTO 24006KT 10SM CLR 33/20 A2979 RMK AO2 LTG DSNT E
KGPH 032055Z AUTO 23008KT 10SM CLR 32/20 A2980 RMK AO2 LTG DSNT SW
KGPH 032035Z AUTO 23011KT 200V260 10SM CLR 32/20 A2981 RMK AO2
KGPH 032015Z AUTO 24007G15KT 10SM CLR 32/20 A2981 RMK AO2
KGPH 031955Z AUTO 22008KT 10SM CLR 32/20 A2982 RMK AO2
KGPH 031935Z AUTO 22009KT 10SM CLR 32/20 A2983 RMK AO2
KGPH 031855Z AUTO 27005KT 10SM CLR 31/20 A2985 RMK AO2
KGPH 031835Z AUTO 28007KT 10SM CLR 31/20 A2985 RMK AO2 LTG DSNT NE
KGPH 031815Z AUTO 27007KT 10SM SCT037 31/19 A2985 RMK AO2
KGPH 031755Z AUTO 24009KT 10SM SCT037 30/20 A2986 RMK AO2
KGPH 031735Z AUTO 26007G10KT 10SM SCT035 30/20 A2986 RMK AO2
KGPH 031715Z AUTO 23008KT 200V270 10SM CLR 30/20 A2986 RMK AO2
KGPH 031655Z AUTO 21006KT 10SM CLR 30/20 A2986 RMK AO2
KGPH 031635Z AUTO 23007KT 10SM CLR 29/19 A2986 RMK AO2 LTG DSNT W
KGPH 031615Z AUTO 24009KT 10SM CLR 29/20 A2986 RMK AO2
KGPH 031555Z AUTO 24007KT 10SM CLR 28/20 A2987 RMK AO2
KGPH 031535Z AUTO 24008KT 10SM CLR 28/20 A2987 RMK AO2
KGPH 031515Z AUTO 27008KT 10SM CLR 27/20 A2988 RMK AO2
KGPH 031455Z AUTO 25009G16KT 10SM CLR 27/19 A2988 RMK AO2